sensor_id;sensor_type;location;lat;lon;timestamp;temperature;humidity
21167;DHT22;10741;52.272;9.580;2023-03-03T00:02:22;1.10;99.90
21167;DHT22;10741;52.272;9.580;2023-03-03T00:04:48;1.10;99.90
21167;DHT22;10741;52.272;9.580;2023-03-03T00:07:13;1.10;99.90
21167;DHT22;10741;52.272;9.580;2023-03-03T00:09:46;1.10;99.90
21167;DHT22;10741;52.272;9.580;2023-03-03T00:12:27;1.10;99.90
21167;DHT22;10741;52.272;9.580;2023-03-03T00:14:54;1.10;99.90
21167;DHT22;10741;52.272;9.580;2023-03-03T00:17:28;1.00;99.90
21167;DHT22;10741;52.272;9.580;2023-03-03T00:19:55;1.00;99.90
21167;DHT22;10741;52.272;9.580;2023-03-03T00:22:30;1.10;99.90
21167;DHT22;10741;52.272;9.580;2023-03-03T00:25:39;1.00;99.90
21167;DHT22;10741;52.272;9.580;2023-03-03T00:30:47;0.90;99.90
21167;DHT22;10741;52.272;9.580;2023-03-03T00:33:26;0.90;99.90
21167;DHT22;10741;52.272;9.580;2023-03-03T00:35:54;1.00;99.90
21167;DHT22;10741;52.272;9.580;2023-03-03T00:38:20;1.00;99.90
21167;DHT22;10741;52.272;9.580;2023-03-03T00:40:46;0.90;99.90
21167;DHT22;10741;52.272;9.580;2023-03-03T00:43:21;0.90;99.90
21167;DHT22;10741;52.272;9.580;2023-03-03T00:45:52;0.90;99.90
21167;DHT22;10741;52.272;9.580;2023-03-03T00:48:41;0.90;99.90
21167;DHT22;10741;52.272;9.580;2023-03-03T00:51:29;0.80;99.90
21167;DHT22;10741;52.272;9.580;2023-03-03T00:53:56;0.80;99.90
21167;DHT22;10741;52.272;9.580;2023-03-03T00:56:22;0.80;99.90
21167;DHT22;10741;52.272;9.580;2023-03-03T00:58:48;0.80;99.90
21167;DHT22;10741;52.272;9.580;2023-03-03T01:01:15;0.70;99.90
21167;DHT22;10741;52.272;9.580;2023-03-03T01:03:41;0.70;99.90
21167;DHT22;10741;52.272;9.580;2023-03-03T01:06:07;0.80;99.90
21167;DHT22;10741;52.272;9.580;2023-03-03T01:08:33;0.70;99.90
21167;DHT22;10741;52.272;9.580;2023-03-03T01:11:03;0.70;99.90
21167;DHT22;10741;52.272;9.580;2023-03-03T01:13:33;0.80;99.90
21167;DHT22;10741;52.272;9.580;2023-03-03T01:16:01;0.80;99.90
21167;DHT22;10741;52.272;9.580;2023-03-03T01:18:28;0.70;99.90
21167;DHT22;10741;52.272;9.580;2023-03-03T01:20:54;0.80;99.90
21167;DHT22;10741;52.272;9.580;2023-03-03T01:23:20;0.80;99.90
21167;DHT22;10741;52.272;9.580;2023-03-03T01:25:46;0.80;99.90
21167;DHT22;10741;52.272;9.580;2023-03-03T01:28:12;0.80;99.90
21167;DHT22;10741;52.272;9.580;2023-03-03T01:30:38;0.90;99.90
21167;DHT22;10741;52.272;9.580;2023-03-03T01:33:03;0.80;99.90
21167;DHT22;10741;52.272;9.580;2023-03-03T01:35:29;0.80;99.90
21167;DHT22;10741;52.272;9.580;2023-03-03T01:37:55;0.80;99.90
21167;DHT22;10741;52.272;9.580;2023-03-03T01:40:30;0.80;99.90
21167;DHT22;10741;52.272;9.580;2023-03-03T01:42:59;0.80;99.90
21167;DHT22;10741;52.272;9.580;2023-03-03T01:45:30;0.80;99.90
21167;DHT22;10741;52.272;9.580;2023-03-03T01:50:47;0.80;99.90
21167;DHT22;10741;52.272;9.580;2023-03-03T01:53:18;0.70;99.90
21167;DHT22;10741;52.272;9.580;2023-03-03T01:55:45;0.80;99.90
21167;DHT22;10741;52.272;9.580;2023-03-03T01:58:23;0.80;99.90
21167;DHT22;10741;52.272;9.580;2023-03-03T02:00:54;0.70;99.90
21167;DHT22;10741;52.272;9.580;2023-03-03T02:03:22;0.70;99.90
21167;DHT22;10741;52.272;9.580;2023-03-03T02:05:51;0.60;99.90
21167;DHT22;10741;52.272;9.580;2023-03-03T02:08:22;0.60;99.90
21167;DHT22;10741;52.272;9.580;2023-03-03T02:10:50;0.60;99.90
21167;DHT22;10741;52.272;9.580;2023-03-03T02:13:17;0.60;99.90
21167;DHT22;10741;52.272;9.580;2023-03-03T02:15:43;0.50;99.90
21167;DHT22;10741;52.272;9.580;2023-03-03T02:18:12;0.50;99.90
21167;DHT22;10741;52.272;9.580;2023-03-03T02:21:04;0.50;99.90
21167;DHT22;10741;52.272;9.580;2023-03-03T02:26:18;0.50;99.90
21167;DHT22;10741;52.272;9.580;2023-03-03T02:28:47;0.50;99.90
21167;DHT22;10741;52.272;9.580;2023-03-03T02:31:15;0.40;99.90
21167;DHT22;10741;52.272;9.580;2023-03-03T02:33:43;0.40;99.90
21167;DHT22;10741;52.272;9.580;2023-03-03T02:36:14;0.40;99.90
21167;DHT22;10741;52.272;9.580;2023-03-03T02:41:42;0.40;99.90
21167;DHT22;10741;52.272;9.580;2023-03-03T02:44:14;0.40;99.90
21167;DHT22;10741;52.272;9.580;2023-03-03T02:46:43;0.50;99.90
21167;DHT22;10741;52.272;9.580;2023-03-03T02:49:11;0.50;99.90
21167;DHT22;10741;52.272;9.580;2023-03-03T02:51:38;0.50;99.90
21167;DHT22;10741;52.272;9.580;2023-03-03T02:54:05;0.50;99.90
21167;DHT22;10741;52.272;9.580;2023-03-03T02:56:31;0.50;99.90
21167;DHT22;10741;52.272;9.580;2023-03-03T02:58:56;0.50;99.90
21167;DHT22;10741;52.272;9.580;2023-03-03T03:01:22;0.50;99.90
21167;DHT22;10741;52.272;9.580;2023-03-03T03:03:48;0.50;99.90
21167;DHT22;10741;52.272;9.580;2023-03-03T03:06:14;0.50;99.90
21167;DHT22;10741;52.272;9.580;2023-03-03T03:08:40;0.50;99.90
21167;DHT22;10741;52.272;9.580;2023-03-03T03:11:06;0.60;99.90
21167;DHT22;10741;52.272;9.580;2023-03-03T03:13:32;0.50;99.90
21167;DHT22;10741;52.272;9.580;2023-03-03T03:15:58;0.50;99.90
21167;DHT22;10741;52.272;9.580;2023-03-03T03:18:25;0.40;99.90
21167;DHT22;10741;52.272;9.580;2023-03-03T03:20:51;0.50;99.90
21167;DHT22;10741;52.272;9.580;2023-03-03T03:23:17;0.50;99.90
21167;DHT22;10741;52.272;9.580;2023-03-03T03:25:43;0.40;99.90
21167;DHT22;10741;52.272;9.580;2023-03-03T03:28:13;0.40;99.90
21167;DHT22;10741;52.272;9.580;2023-03-03T03:30:39;0.40;99.90
21167;DHT22;10741;52.272;9.580;2023-03-03T03:33:05;0.40;99.90
21167;DHT22;10741;52.272;9.580;2023-03-03T03:35:35;0.40;99.90
21167;DHT22;10741;52.272;9.580;2023-03-03T03:38:01;0.40;99.90
21167;DHT22;10741;52.272;9.580;2023-03-03T03:40:26;0.40;99.90
21167;DHT22;10741;52.272;9.580;2023-03-03T03:42:53;0.50;99.90
21167;DHT22;10741;52.272;9.580;2023-03-03T03:45:19;0.40;99.90
21167;DHT22;10741;52.272;9.580;2023-03-03T03:47:45;0.40;99.90
21167;DHT22;10741;52.272;9.580;2023-03-03T03:50:11;0.40;99.90
21167;DHT22;10741;52.272;9.580;2023-03-03T03:52:37;0.40;99.90
21167;DHT22;10741;52.272;9.580;2023-03-03T03:55:03;0.40;99.90
21167;DHT22;10741;52.272;9.580;2023-03-03T03:57:29;0.40;99.90
21167;DHT22;10741;52.272;9.580;2023-03-03T03:59:55;0.40;99.90
21167;DHT22;10741;52.272;9.580;2023-03-03T04:02:21;0.40;99.90
21167;DHT22;10741;52.272;9.580;2023-03-03T04:04:46;0.40;99.90
21167;DHT22;10741;52.272;9.580;2023-03-03T04:07:12;0.50;99.90
21167;DHT22;10741;52.272;9.580;2023-03-03T04:09:38;0.40;99.90
21167;DHT22;10741;52.272;9.580;2023-03-03T04:12:04;0.50;99.90
21167;DHT22;10741;52.272;9.580;2023-03-03T04:14:30;0.50;99.90
21167;DHT22;10741;52.272;9.580;2023-03-03T04:16:57;0.50;99.90
21167;DHT22;10741;52.272;9.580;2023-03-03T04:19:23;0.50;99.90
21167;DHT22;10741;52.272;9.580;2023-03-03T04:21:49;0.40;99.90
21167;DHT22;10741;52.272;9.580;2023-03-03T04:24:15;0.50;99.90
21167;DHT22;10741;52.272;9.580;2023-03-03T04:26:41;0.50;99.90
21167;DHT22;10741;52.272;9.580;2023-03-03T04:29:07;0.50;99.90
21167;DHT22;10741;52.272;9.580;2023-03-03T04:31:32;0.50;99.90
21167;DHT22;10741;52.272;9.580;2023-03-03T04:33:58;0.50;99.90
21167;DHT22;10741;52.272;9.580;2023-03-03T04:36:24;0.50;99.90
21167;DHT22;10741;52.272;9.580;2023-03-03T04:38:50;0.60;99.90
21167;DHT22;10741;52.272;9.580;2023-03-03T04:41:16;0.50;99.90
21167;DHT22;10741;52.272;9.580;2023-03-03T04:43:41;0.50;99.90
21167;DHT22;10741;52.272;9.580;2023-03-03T04:46:07;0.60;99.90
21167;DHT22;10741;52.272;9.580;2023-03-03T04:48:33;0.60;99.90
21167;DHT22;10741;52.272;9.580;2023-03-03T04:50:59;0.50;99.90
21167;DHT22;10741;52.272;9.580;2023-03-03T04:53:25;0.60;99.90
21167;DHT22;10741;52.272;9.580;2023-03-03T04:55:51;0.60;99.90
21167;DHT22;10741;52.272;9.580;2023-03-03T04:58:17;0.60;99.90
21167;DHT22;10741;52.272;9.580;2023-03-03T05:00:52;0.60;99.90
21167;DHT22;10741;52.272;9.580;2023-03-03T05:03:18;0.60;99.90
21167;DHT22;10741;52.272;9.580;2023-03-03T05:05:46;0.60;99.90
21167;DHT22;10741;52.272;9.580;2023-03-03T05:08:12;0.60;99.90
21167;DHT22;10741;52.272;9.580;2023-03-03T05:10:39;0.60;99.90
21167;DHT22;10741;52.272;9.580;2023-03-03T05:13:06;0.60;99.90
21167;DHT22;10741;52.272;9.580;2023-03-03T05:15:32;0.60;99.90
21167;DHT22;10741;52.272;9.580;2023-03-03T05:17:58;0.60;99.90
21167;DHT22;10741;52.272;9.580;2023-03-03T05:20:24;0.60;99.90
21167;DHT22;10741;52.272;9.580;2023-03-03T05:22:50;0.60;99.90
21167;DHT22;10741;52.272;9.580;2023-03-03T05:25:16;0.60;99.90
21167;DHT22;10741;52.272;9.580;2023-03-03T05:27:42;0.60;99.90
21167;DHT22;10741;52.272;9.580;2023-03-03T05:30:09;0.60;99.90
21167;DHT22;10741;52.272;9.580;2023-03-03T05:32:35;0.60;99.90
21167;DHT22;10741;52.272;9.580;2023-03-03T05:35:03;0.60;99.90
21167;DHT22;10741;52.272;9.580;2023-03-03T05:37:28;0.60;99.90
21167;DHT22;10741;52.272;9.580;2023-03-03T05:39:54;0.60;99.90
21167;DHT22;10741;52.272;9.580;2023-03-03T05:42:20;0.60;99.90
21167;DHT22;10741;52.272;9.580;2023-03-03T05:44:46;0.60;99.90
21167;DHT22;10741;52.272;9.580;2023-03-03T05:47:12;0.70;99.90
21167;DHT22;10741;52.272;9.580;2023-03-03T05:49:38;0.60;99.90
21167;DHT22;10741;52.272;9.580;2023-03-03T05:52:04;0.60;99.90
21167;DHT22;10741;52.272;9.580;2023-03-03T05:54:30;0.60;99.90
21167;DHT22;10741;52.272;9.580;2023-03-03T05:56:56;0.70;99.90
21167;DHT22;10741;52.272;9.580;2023-03-03T06:02:28;0.70;99.90
21167;DHT22;10741;52.272;9.580;2023-03-03T06:04:54;0.80;99.90
21167;DHT22;10741;52.272;9.580;2023-03-03T06:07:20;0.80;99.90
21167;DHT22;10741;52.272;9.580;2023-03-03T06:09:46;0.80;99.90
21167;DHT22;10741;52.272;9.580;2023-03-03T06:12:11;0.80;99.90
21167;DHT22;10741;52.272;9.580;2023-03-03T06:14:37;0.80;99.90
21167;DHT22;10741;52.272;9.580;2023-03-03T06:17:03;0.80;99.90
21167;DHT22;10741;52.272;9.580;2023-03-03T06:19:30;0.80;99.90
21167;DHT22;10741;52.272;9.580;2023-03-03T06:21:56;0.90;99.90
21167;DHT22;10741;52.272;9.580;2023-03-03T06:24:22;0.80;99.90
21167;DHT22;10741;52.272;9.580;2023-03-03T06:26:50;0.80;99.90
21167;DHT22;10741;52.272;9.580;2023-03-03T06:29:16;0.80;99.90
21167;DHT22;10741;52.272;9.580;2023-03-03T06:31:42;0.80;99.90
21167;DHT22;10741;52.272;9.580;2023-03-03T06:34:09;0.80;99.90
21167;DHT22;10741;52.272;9.580;2023-03-03T06:36:35;0.80;99.90
21167;DHT22;10741;52.272;9.580;2023-03-03T06:39:00;0.80;99.90
21167;DHT22;10741;52.272;9.580;2023-03-03T06:41:26;0.80;99.90
21167;DHT22;10741;52.272;9.580;2023-03-03T06:43:52;0.90;99.90
21167;DHT22;10741;52.272;9.580;2023-03-03T06:46:18;0.90;99.90
21167;DHT22;10741;52.272;9.580;2023-03-03T06:48:43;0.80;99.90
21167;DHT22;10741;52.272;9.580;2023-03-03T06:51:33;0.90;99.90
21167;DHT22;10741;52.272;9.580;2023-03-03T06:54:13;0.80;99.90
21167;DHT22;10741;52.272;9.580;2023-03-03T06:56:39;0.90;99.90
21167;DHT22;10741;52.272;9.580;2023-03-03T06:59:12;0.90;99.90
21167;DHT22;10741;52.272;9.580;2023-03-03T07:01:38;0.90;99.90
21167;DHT22;10741;52.272;9.580;2023-03-03T07:07:24;0.90;99.90
21167;DHT22;10741;52.272;9.580;2023-03-03T07:09:52;1.00;99.90
21167;DHT22;10741;52.272;9.580;2023-03-03T07:12:21;0.90;99.90
21167;DHT22;10741;52.272;9.580;2023-03-03T07:14:51;1.00;99.90
21167;DHT22;10741;52.272;9.580;2023-03-03T07:17:22;1.00;99.90
21167;DHT22;10741;52.272;9.580;2023-03-03T07:19:48;1.00;99.90
21167;DHT22;10741;52.272;9.580;2023-03-03T07:22:17;1.10;99.90
21167;DHT22;10741;52.272;9.580;2023-03-03T07:24:45;1.10;99.90
21167;DHT22;10741;52.272;9.580;2023-03-03T07:29:50;1.10;99.90
21167;DHT22;10741;52.272;9.580;2023-03-03T07:32:43;1.10;99.90
21167;DHT22;10741;52.272;9.580;2023-03-03T07:37:44;1.10;99.90
21167;DHT22;10741;52.272;9.580;2023-03-03T07:40:34;1.20;99.90
21167;DHT22;10741;52.272;9.580;2023-03-03T07:48:41;1.30;99.90
21167;DHT22;10741;52.272;9.580;2023-03-03T07:57:01;1.40;99.90
21167;DHT22;10741;52.272;9.580;2023-03-03T07:59:34;1.40;99.90
21167;DHT22;10741;52.272;9.580;2023-03-03T08:02:01;1.40;99.90
21167;DHT22;10741;52.272;9.580;2023-03-03T08:04:46;1.50;99.90
21167;DHT22;10741;52.272;9.580;2023-03-03T08:07:19;1.40;99.90
21167;DHT22;10741;52.272;9.580;2023-03-03T08:09:55;1.50;99.90
21167;DHT22;10741;52.272;9.580;2023-03-03T08:12:41;1.50;99.90
21167;DHT22;10741;52.272;9.580;2023-03-03T08:15:18;1.50;99.90
21167;DHT22;10741;52.272;9.580;2023-03-03T08:17:45;1.60;99.90
21167;DHT22;10741;52.272;9.580;2023-03-03T08:20:36;1.60;99.90
21167;DHT22;10741;52.272;9.580;2023-03-03T08:23:03;1.60;99.90
21167;DHT22;10741;52.272;9.580;2023-03-03T08:25:29;1.70;99.90
21167;DHT22;10741;52.272;9.580;2023-03-03T08:27:55;1.70;99.90
21167;DHT22;10741;52.272;9.580;2023-03-03T08:30:20;1.60;99.90
21167;DHT22;10741;52.272;9.580;2023-03-03T08:32:46;1.60;99.90
21167;DHT22;10741;52.272;9.580;2023-03-03T08:35:12;1.60;99.90
21167;DHT22;10741;52.272;9.580;2023-03-03T08:37:37;1.60;99.90
21167;DHT22;10741;52.272;9.580;2023-03-03T08:40:03;1.70;99.90
21167;DHT22;10741;52.272;9.580;2023-03-03T08:42:29;1.70;99.90
21167;DHT22;10741;52.272;9.580;2023-03-03T08:44:55;1.80;99.90
21167;DHT22;10741;52.272;9.580;2023-03-03T08:47:21;1.80;99.90
21167;DHT22;10741;52.272;9.580;2023-03-03T08:49:47;1.80;99.90
21167;DHT22;10741;52.272;9.580;2023-03-03T08:52:13;1.90;99.90
21167;DHT22;10741;52.272;9.580;2023-03-03T08:54:38;1.90;99.90
21167;DHT22;10741;52.272;9.580;2023-03-03T08:57:04;2.00;99.90
21167;DHT22;10741;52.272;9.580;2023-03-03T08:59:30;2.00;99.90
21167;DHT22;10741;52.272;9.580;2023-03-03T09:01:55;2.10;99.90
21167;DHT22;10741;52.272;9.580;2023-03-03T09:04:21;2.10;99.90
21167;DHT22;10741;52.272;9.580;2023-03-03T09:06:47;2.10;99.90
21167;DHT22;10741;52.272;9.580;2023-03-03T09:09:13;2.10;99.90
21167;DHT22;10741;52.272;9.580;2023-03-03T09:11:39;2.00;99.90
21167;DHT22;10741;52.272;9.580;2023-03-03T09:14:13;2.00;99.90
21167;DHT22;10741;52.272;9.580;2023-03-03T09:16:44;2.10;99.90
21167;DHT22;10741;52.272;9.580;2023-03-03T09:19:26;2.10;99.90
21167;DHT22;10741;52.272;9.580;2023-03-03T09:21:55;2.20;99.90
21167;DHT22;10741;52.272;9.580;2023-03-03T09:24:30;2.20;99.90
21167;DHT22;10741;52.272;9.580;2023-03-03T09:27:00;2.30;99.90
21167;DHT22;10741;52.272;9.580;2023-03-03T09:29:34;2.30;99.90
21167;DHT22;10741;52.272;9.580;2023-03-03T09:34:53;2.20;99.90
21167;DHT22;10741;52.272;9.580;2023-03-03T09:37:28;2.30;99.90
21167;DHT22;10741;52.272;9.580;2023-03-03T09:39:57;2.40;99.90
21167;DHT22;10741;52.272;9.580;2023-03-03T09:45:12;2.40;99.90
21167;DHT22;10741;52.272;9.580;2023-03-03T09:56:48;2.70;99.90
21167;DHT22;10741;52.272;9.580;2023-03-03T10:07:47;3.00;99.90
21167;DHT22;10741;52.272;9.580;2023-03-03T10:10:52;2.90;99.90
21167;DHT22;10741;52.272;9.580;2023-03-03T10:13:30;2.90;99.90
21167;DHT22;10741;52.272;9.580;2023-03-03T10:16:30;2.80;99.90
21167;DHT22;10741;52.272;9.580;2023-03-03T10:19:14;2.80;99.90
21167;DHT22;10741;52.272;9.580;2023-03-03T10:21:50;2.70;99.90
21167;DHT22;10741;52.272;9.580;2023-03-03T10:24:28;2.90;99.90
21167;DHT22;10741;52.272;9.580;2023-03-03T10:30:03;3.50;99.90
21167;DHT22;10741;52.272;9.580;2023-03-03T10:41:06;3.80;99.90
21167;DHT22;10741;52.272;9.580;2023-03-03T10:43:38;3.80;99.90
21167;DHT22;10741;52.272;9.580;2023-03-03T10:46:33;3.80;99.90
21167;DHT22;10741;52.272;9.580;2023-03-03T10:49:13;3.90;99.90
21167;DHT22;10741;52.272;9.580;2023-03-03T10:54:56;4.10;99.90
21167;DHT22;10741;52.272;9.580;2023-03-03T11:00:38;3.80;99.90
21167;DHT22;10741;52.272;9.580;2023-03-03T11:03:33;4.00;99.90
21167;DHT22;10741;52.272;9.580;2023-03-03T11:12:45;4.10;99.90
21167;DHT22;10741;52.272;9.580;2023-03-03T11:15:28;4.10;99.90
21167;DHT22;10741;52.272;9.580;2023-03-03T11:24:01;4.60;99.90
21167;DHT22;10741;52.272;9.580;2023-03-03T11:26:53;4.50;99.90
21167;DHT22;10741;52.272;9.580;2023-03-03T11:32:51;4.50;99.90
21167;DHT22;10741;52.272;9.580;2023-03-03T11:43:46;4.40;99.90
21167;DHT22;10741;52.272;9.580;2023-03-03T11:46:18;4.40;99.90
21167;DHT22;10741;52.272;9.580;2023-03-03T11:49:19;4.40;99.90
21167;DHT22;10741;52.272;9.580;2023-03-03T11:51:59;4.40;99.90
21167;DHT22;10741;52.272;9.580;2023-03-03T11:55:19;4.50;99.90
21167;DHT22;10741;52.272;9.580;2023-03-03T11:57:34;4.40;99.90
21167;DHT22;10741;52.272;9.580;2023-03-03T12:00:32;4.60;99.90
21167;DHT22;10741;52.272;9.580;2023-03-03T12:03:23;4.70;99.90
21167;DHT22;10741;52.272;9.580;2023-03-03T12:06:11;4.70;99.90
21167;DHT22;10741;52.272;9.580;2023-03-03T12:14:21;4.70;99.90
21167;DHT22;10741;52.272;9.580;2023-03-03T12:17:03;4.60;99.90
21167;DHT22;10741;52.272;9.580;2023-03-03T12:19:47;4.70;99.90
21167;DHT22;10741;52.272;9.580;2023-03-03T12:30:59;4.60;99.90
21167;DHT22;10741;52.272;9.580;2023-03-03T12:36:15;4.80;99.90
21167;DHT22;10741;52.272;9.580;2023-03-03T12:42:04;4.80;99.90
21167;DHT22;10741;52.272;9.580;2023-03-03T12:47:26;5.10;99.90
21167;DHT22;10741;52.272;9.580;2023-03-03T12:52:57;5.30;99.90
21167;DHT22;10741;52.272;9.580;2023-03-03T12:58:19;5.60;99.90
21167;DHT22;10741;52.272;9.580;2023-03-03T13:03:48;6.20;99.90
21167;DHT22;10741;52.272;9.580;2023-03-03T13:06:29;6.00;99.90
21167;DHT22;10741;52.272;9.580;2023-03-03T13:09:21;5.90;99.90
21167;DHT22;10741;52.272;9.580;2023-03-03T13:17:44;5.80;99.90
21167;DHT22;10741;52.272;9.580;2023-03-03T13:23:09;5.50;99.90
21167;DHT22;10741;52.272;9.580;2023-03-03T13:26:08;5.60;99.90
21167;DHT22;10741;52.272;9.580;2023-03-03T13:33:35;5.30;99.90
21167;DHT22;10741;52.272;9.580;2023-03-03T13:36:06;5.40;99.90
21167;DHT22;10741;52.272;9.580;2023-03-03T13:38:39;5.40;99.90
21167;DHT22;10741;52.272;9.580;2023-03-03T13:41:07;5.20;99.90
21167;DHT22;10741;52.272;9.580;2023-03-03T13:44:29;5.10;99.90
21167;DHT22;10741;52.272;9.580;2023-03-03T13:46:34;5.10;99.90
21167;DHT22;10741;52.272;9.580;2023-03-03T13:49:10;5.10;99.90
21167;DHT22;10741;52.272;9.580;2023-03-03T13:52:04;5.20;99.90
21167;DHT22;10741;52.272;9.580;2023-03-03T13:59:49;5.40;99.90
21167;DHT22;10741;52.272;9.580;2023-03-03T14:16:08;5.40;99.90
21167;DHT22;10741;52.272;9.580;2023-03-03T14:18:39;5.40;99.90
21167;DHT22;10741;52.272;9.580;2023-03-03T14:21:18;5.30;99.90
21167;DHT22;10741;52.272;9.580;2023-03-03T14:26:26;5.30;99.90
21167;DHT22;10741;52.272;9.580;2023-03-03T14:29:15;5.10;99.90
21167;DHT22;10741;52.272;9.580;2023-03-03T14:31:43;5.10;99.90
21167;DHT22;10741;52.272;9.580;2023-03-03T14:36:48;5.10;99.90
21167;DHT22;10741;52.272;9.580;2023-03-03T14:42:00;5.30;99.90
21167;DHT22;10741;52.272;9.580;2023-03-03T14:44:29;5.30;99.90
21167;DHT22;10741;52.272;9.580;2023-03-03T14:47:17;5.20;99.90
21167;DHT22;10741;52.272;9.580;2023-03-03T14:49:45;5.40;99.90
21167;DHT22;10741;52.272;9.580;2023-03-03T14:54:49;5.60;99.90
21167;DHT22;10741;52.272;9.580;2023-03-03T14:58:00;5.70;99.90
21167;DHT22;10741;52.272;9.580;2023-03-03T15:05:30;5.60;99.90
21167;DHT22;10741;52.272;9.580;2023-03-03T15:08:08;5.80;99.90
21167;DHT22;10741;52.272;9.580;2023-03-03T15:10:42;6.00;99.90
21167;DHT22;10741;52.272;9.580;2023-03-03T15:16:03;6.00;99.90
21167;DHT22;10741;52.272;9.580;2023-03-03T15:18:31;6.00;99.90
21167;DHT22;10741;52.272;9.580;2023-03-03T15:21:07;6.40;99.90
21167;DHT22;10741;52.272;9.580;2023-03-03T15:23:46;6.70;99.90
21167;DHT22;10741;52.272;9.580;2023-03-03T15:26:48;6.70;99.90
21167;DHT22;10741;52.272;9.580;2023-03-03T15:29:39;6.80;99.90
21167;DHT22;10741;52.272;9.580;2023-03-03T15:35:46;6.00;99.90
21167;DHT22;10741;52.272;9.580;2023-03-03T15:38:22;5.70;99.90
21167;DHT22;10741;52.272;9.580;2023-03-03T15:43:52;5.10;99.90
21167;DHT22;10741;52.272;9.580;2023-03-03T15:52:44;4.90;99.90
21167;DHT22;10741;52.272;9.580;2023-03-03T15:55:37;4.80;99.90
21167;DHT22;10741;52.272;9.580;2023-03-03T16:01:42;4.80;99.90
21167;DHT22;10741;52.272;9.580;2023-03-03T16:04:14;4.70;99.90
21167;DHT22;10741;52.272;9.580;2023-03-03T16:23:43;4.20;99.90
21167;DHT22;10741;52.272;9.580;2023-03-03T16:26:46;4.10;99.90
21167;DHT22;10741;52.272;9.580;2023-03-03T16:29:32;4.00;99.90
21167;DHT22;10741;52.272;9.580;2023-03-03T16:35:13;3.90;99.90
21167;DHT22;10741;52.272;9.580;2023-03-03T16:37:49;3.80;99.90
21167;DHT22;10741;52.272;9.580;2023-03-03T16:42:52;3.60;99.90
21167;DHT22;10741;52.272;9.580;2023-03-03T16:45:27;3.60;99.90
21167;DHT22;10741;52.272;9.580;2023-03-03T16:50:38;3.40;99.90
21167;DHT22;10741;52.272;9.580;2023-03-03T16:56:13;3.20;99.90
21167;DHT22;10741;52.272;9.580;2023-03-03T17:04:55;2.80;99.90
21167;DHT22;10741;52.272;9.580;2023-03-03T17:10:21;2.60;99.90
21167;DHT22;10741;52.272;9.580;2023-03-03T17:21:58;2.10;99.90
21167;DHT22;10741;52.272;9.580;2023-03-03T17:30:13;1.80;99.90
21167;DHT22;10741;52.272;9.580;2023-03-03T17:33:06;1.70;99.90
21167;DHT22;10741;52.272;9.580;2023-03-03T17:36:12;1.60;99.90
21167;DHT22;10741;52.272;9.580;2023-03-03T17:44:33;1.50;99.90
21167;DHT22;10741;52.272;9.580;2023-03-03T17:47:08;1.50;99.90
21167;DHT22;10741;52.272;9.580;2023-03-03T17:49:55;1.50;99.90
21167;DHT22;10741;52.272;9.580;2023-03-03T17:52:49;1.60;99.90
21167;DHT22;10741;52.272;9.580;2023-03-03T18:03:34;2.20;99.90
21167;DHT22;10741;52.272;9.580;2023-03-03T18:11:37;2.90;99.90
21167;DHT22;10741;52.272;9.580;2023-03-03T18:22:32;3.50;99.90
21167;DHT22;10741;52.272;9.580;2023-03-03T18:25:03;3.60;99.90
21167;DHT22;10741;52.272;9.580;2023-03-03T18:30:21;3.70;99.90
21167;DHT22;10741;52.272;9.580;2023-03-03T18:35:36;3.80;99.90
21167;DHT22;10741;52.272;9.580;2023-03-03T18:41:10;3.80;99.90
21167;DHT22;10741;52.272;9.580;2023-03-03T18:48:57;3.80;99.90
21167;DHT22;10741;52.272;9.580;2023-03-03T19:12:58;4.00;99.90
21167;DHT22;10741;52.272;9.580;2023-03-03T19:18:25;4.10;99.90
21167;DHT22;10741;52.272;9.580;2023-03-03T19:20:55;4.10;99.90
21167;DHT22;10741;52.272;9.580;2023-03-03T19:23:45;4.10;99.90
21167;DHT22;10741;52.272;9.580;2023-03-03T19:39:51;4.10;99.90
21167;DHT22;10741;52.272;9.580;2023-03-03T19:47:50;4.20;99.90
21167;DHT22;10741;52.272;9.580;2023-03-03T19:56:14;4.20;99.90
21167;DHT22;10741;52.272;9.580;2023-03-03T19:58:53;4.20;99.90
21167;DHT22;10741;52.272;9.580;2023-03-03T20:04:24;4.30;99.90
21167;DHT22;10741;52.272;9.580;2023-03-03T20:09:51;4.30;99.90
21167;DHT22;10741;52.272;9.580;2023-03-03T20:12:28;4.30;99.90
21167;DHT22;10741;52.272;9.580;2023-03-03T20:17:44;4.30;99.90
21167;DHT22;10741;52.272;9.580;2023-03-03T20:26:13;4.40;99.90
21167;DHT22;10741;52.272;9.580;2023-03-03T20:29:05;4.30;99.90
21167;DHT22;10741;52.272;9.580;2023-03-03T20:35:14;4.30;99.90
21167;DHT22;10741;52.272;9.580;2023-03-03T20:49:12;4.50;99.90
21167;DHT22;10741;52.272;9.580;2023-03-03T20:54:48;4.50;99.90
21167;DHT22;10741;52.272;9.580;2023-03-03T21:05:33;4.60;99.90
21167;DHT22;10741;52.272;9.580;2023-03-03T21:08:04;4.60;99.90
21167;DHT22;10741;52.272;9.580;2023-03-03T21:10:34;4.60;99.90
21167;DHT22;10741;52.272;9.580;2023-03-03T21:13:26;4.60;99.90
21167;DHT22;10741;52.272;9.580;2023-03-03T21:18:37;4.70;99.90
21167;DHT22;10741;52.272;9.580;2023-03-03T21:21:03;4.70;99.90
21167;DHT22;10741;52.272;9.580;2023-03-03T21:23:29;4.70;99.90
21167;DHT22;10741;52.272;9.580;2023-03-03T21:25:56;4.70;99.90
21167;DHT22;10741;52.272;9.580;2023-03-03T21:28:32;4.80;99.90
21167;DHT22;10741;52.272;9.580;2023-03-03T21:33:39;4.70;99.90
21167;DHT22;10741;52.272;9.580;2023-03-03T21:36:06;4.70;99.90
21167;DHT22;10741;52.272;9.580;2023-03-03T21:38:33;4.60;99.90
21167;DHT22;10741;52.272;9.580;2023-03-03T21:41:00;4.60;99.90
21167;DHT22;10741;52.272;9.580;2023-03-03T21:43:37;4.60;99.90
21167;DHT22;10741;52.272;9.580;2023-03-03T21:46:04;4.50;99.90
21167;DHT22;10741;52.272;9.580;2023-03-03T21:48:30;4.50;99.90
21167;DHT22;10741;52.272;9.580;2023-03-03T21:50:56;4.40;99.90
21167;DHT22;10741;52.272;9.580;2023-03-03T21:53:22;4.40;99.90
21167;DHT22;10741;52.272;9.580;2023-03-03T21:55:51;4.40;99.90
21167;DHT22;10741;52.272;9.580;2023-03-03T21:58:17;4.40;99.90
21167;DHT22;10741;52.272;9.580;2023-03-03T22:00:44;4.30;99.90
21167;DHT22;10741;52.272;9.580;2023-03-03T22:03:11;4.40;99.90
21167;DHT22;10741;52.272;9.580;2023-03-03T22:05:38;4.30;99.90
21167;DHT22;10741;52.272;9.580;2023-03-03T22:08:05;4.30;99.90
21167;DHT22;10741;52.272;9.580;2023-03-03T22:10:30;4.40;99.90
21167;DHT22;10741;52.272;9.580;2023-03-03T22:12:56;4.30;99.90
21167;DHT22;10741;52.272;9.580;2023-03-03T22:15:22;4.30;99.90
21167;DHT22;10741;52.272;9.580;2023-03-03T22:17:48;4.40;99.90
21167;DHT22;10741;52.272;9.580;2023-03-03T22:20:14;4.40;99.90
21167;DHT22;10741;52.272;9.580;2023-03-03T22:22:40;4.40;99.90
21167;DHT22;10741;52.272;9.580;2023-03-03T22:25:07;4.40;99.90
21167;DHT22;10741;52.272;9.580;2023-03-03T22:27:33;4.40;99.90
21167;DHT22;10741;52.272;9.580;2023-03-03T22:29:59;4.40;99.90
21167;DHT22;10741;52.272;9.580;2023-03-03T22:32:25;4.40;99.90
21167;DHT22;10741;52.272;9.580;2023-03-03T22:34:51;4.50;99.90
21167;DHT22;10741;52.272;9.580;2023-03-03T22:37:17;4.50;99.90
21167;DHT22;10741;52.272;9.580;2023-03-03T22:39:43;4.50;99.90
21167;DHT22;10741;52.272;9.580;2023-03-03T22:42:09;4.50;99.90